sensor_id;sensor_type;location;lat;lon;timestamp;pressure;altitude;pressure_sealevel;temperature;humidity
75775;BME280;64505;51.458;7.556;2023-08-01T00:01:50;98119.13;;;18.48;89.24
75775;BME280;64505;51.458;7.556;2023-08-01T00:03:51;98117.03;;;18.45;90.33
75775;BME280;64505;51.458;7.556;2023-08-01T00:05:53;98119.59;;;18.50;89.57
75775;BME280;64505;51.458;7.556;2023-08-01T00:07:56;98121.19;;;18.51;89.60
75775;BME280;64505;51.458;7.556;2023-08-01T00:09:57;98115.31;;;18.49;89.88
75775;BME280;64505;51.458;7.556;2023-08-01T00:11:59;98112.66;;;18.41;89.51
75775;BME280;64505;51.458;7.556;2023-08-01T00:14:00;98107.03;;;18.51;89.86
75775;BME280;64505;51.458;7.556;2023-08-01T00:16:02;98116.59;;;18.43;90.28
75775;BME280;64505;51.458;7.556;2023-08-01T00:18:08;98113.63;;;18.53;89.82
75775;BME280;64505;51.458;7.556;2023-08-01T00:20:10;98103.34;;;18.47;90.30
75775;BME280;64505;51.458;7.556;2023-08-01T00:22:11;98103.72;;;18.54;90.04
75775;BME280;64505;51.458;7.556;2023-08-01T00:24:13;98094.59;;;18.55;89.59
75775;BME280;64505;51.458;7.556;2023-08-01T00:26:14;98092.22;;;18.53;90.13
75775;BME280;64505;51.458;7.556;2023-08-01T00:28:16;98096.13;;;18.47;91.07
75775;BME280;64505;51.458;7.556;2023-08-01T00:30:17;98068.47;;;18.52;89.60
75775;BME280;64505;51.458;7.556;2023-08-01T00:32:19;98078.34;;;18.60;89.85
75775;BME280;64505;51.458;7.556;2023-08-01T00:34:20;98081.63;;;18.40;90.55
75775;BME280;64505;51.458;7.556;2023-08-01T00:36:22;98082.09;;;18.50;90.15
75775;BME280;64505;51.458;7.556;2023-08-01T00:38:23;98072.69;;;18.53;89.98
75775;BME280;64505;51.458;7.556;2023-08-01T00:40:30;98074.72;;;18.47;90.37
75775;BME280;64505;51.458;7.556;2023-08-01T00:42:32;98063.56;;;18.54;90.11
75775;BME280;64505;51.458;7.556;2023-08-01T00:44:36;98052.56;;;18.55;89.89
75775;BME280;64505;51.458;7.556;2023-08-01T00:46:38;98057.28;;;18.58;90.02
75775;BME280;64505;51.458;7.556;2023-08-01T00:48:40;98057.91;;;18.64;89.42
75775;BME280;64505;51.458;7.556;2023-08-01T00:50:41;98054.09;;;18.56;90.14
75775;BME280;64505;51.458;7.556;2023-08-01T00:52:43;98060.75;;;18.59;89.43
75775;BME280;64505;51.458;7.556;2023-08-01T00:54:44;98055.38;;;18.59;89.46
75775;BME280;64505;51.458;7.556;2023-08-01T00:56:46;98047.03;;;18.52;91.18
75775;BME280;64505;51.458;7.556;2023-08-01T00:58:47;98044.19;;;18.57;90.34
75775;BME280;64505;51.458;7.556;2023-08-01T01:00:49;98029.22;;;18.47;91.25
75775;BME280;64505;51.458;7.556;2023-08-01T01:02:51;98041.81;;;18.47;90.97
75775;BME280;64505;51.458;7.556;2023-08-01T01:04:53;98053.44;;;18.25;90.79
75775;BME280;64505;51.458;7.556;2023-08-01T01:07:00;98071.16;;;18.12;90.79
75775;BME280;64505;51.458;7.556;2023-08-01T01:09:01;98058.59;;;18.04;90.96
75775;BME280;64505;51.458;7.556;2023-08-01T01:11:06;98070.72;;;18.10;90.46
75775;BME280;64505;51.458;7.556;2023-08-01T01:13:07;98068.38;;;18.26;90.01
75775;BME280;64505;51.458;7.556;2023-08-01T01:15:09;98070.72;;;18.28;88.99
75775;BME280;64505;51.458;7.556;2023-08-01T01:17:11;98070.25;;;18.08;89.81
75775;BME280;64505;51.458;7.556;2023-08-01T01:19:13;98068.50;;;18.04;89.51
75775;BME280;64505;51.458;7.556;2023-08-01T01:21:14;98041.09;;;17.98;89.56
75775;BME280;64505;51.458;7.556;2023-08-01T01:23:16;98043.66;;;18.12;89.10
75775;BME280;64505;51.458;7.556;2023-08-01T01:25:19;98034.47;;;17.96;89.24
75775;BME280;64505;51.458;7.556;2023-08-01T01:27:21;98025.53;;;18.00;88.18
75775;BME280;64505;51.458;7.556;2023-08-01T01:29:24;98030.81;;;17.75;90.32
75775;BME280;64505;51.458;7.556;2023-08-01T01:31:27;98027.03;;;17.84;89.48
75775;BME280;64505;51.458;7.556;2023-08-01T01:33:28;98027.22;;;17.88;88.42
75775;BME280;64505;51.458;7.556;2023-08-01T01:35:33;98017.97;;;17.94;89.09
75775;BME280;64505;51.458;7.556;2023-08-01T01:37:34;98013.16;;;17.65;89.73
75775;BME280;64505;51.458;7.556;2023-08-01T01:39:36;98019.19;;;17.88;88.90
75775;BME280;64505;51.458;7.556;2023-08-01T01:41:37;98016.19;;;17.72;89.70
75775;BME280;64505;51.458;7.556;2023-08-01T01:43:39;98005.94;;;17.74;90.03
75775;BME280;64505;51.458;7.556;2023-08-01T01:45:40;98003.50;;;17.55;90.51
75775;BME280;64505;51.458;7.556;2023-08-01T01:47:41;98004.69;;;17.72;90.00
75775;BME280;64505;51.458;7.556;2023-08-01T01:49:43;98007.81;;;17.65;89.41
75775;BME280;64505;51.458;7.556;2023-08-01T01:51:44;98002.53;;;17.51;90.32
75775;BME280;64505;51.458;7.556;2023-08-01T01:53:46;98012.69;;;17.63;90.50
75775;BME280;64505;51.458;7.556;2023-08-01T01:55:48;98007.19;;;17.68;89.86
75775;BME280;64505;51.458;7.556;2023-08-01T01:57:49;98008.91;;;17.73;89.73
75775;BME280;64505;51.458;7.556;2023-08-01T01:59:51;98009.91;;;17.85;88.77
75775;BME280;64505;51.458;7.556;2023-08-01T02:01:52;97995.13;;;17.79;88.90
75775;BME280;64505;51.458;7.556;2023-08-01T02:03:53;97983.97;;;17.86;89.03
75775;BME280;64505;51.458;7.556;2023-08-01T02:05:55;97986.16;;;17.84;88.71
75775;BME280;64505;51.458;7.556;2023-08-01T02:07:56;97994.34;;;17.79;88.98
75775;BME280;64505;51.458;7.556;2023-08-01T02:09:58;97999.34;;;17.80;88.97
75775;BME280;64505;51.458;7.556;2023-08-01T02:11:59;98001.06;;;17.67;89.34
75775;BME280;64505;51.458;7.556;2023-08-01T02:14:01;98002.31;;;17.70;89.26
75775;BME280;64505;51.458;7.556;2023-08-01T02:16:04;97996.34;;;17.64;89.31
75775;BME280;64505;51.458;7.556;2023-08-01T02:18:05;97996.69;;;17.80;89.13
75775;BME280;64505;51.458;7.556;2023-08-01T02:20:07;97992.28;;;17.76;89.43
75775;BME280;64505;51.458;7.556;2023-08-01T02:22:09;97989.31;;;17.86;89.34
75775;BME280;64505;51.458;7.556;2023-08-01T02:24:10;97992.00;;;17.55;90.20
75775;BME280;64505;51.458;7.556;2023-08-01T02:26:12;97997.75;;;17.70;89.42
75775;BME280;64505;51.458;7.556;2023-08-01T02:28:14;97994.00;;;17.80;89.04
75775;BME280;64505;51.458;7.556;2023-08-01T02:30:15;98005.75;;;17.62;89.57
75775;BME280;64505;51.458;7.556;2023-08-01T02:32:17;98002.31;;;17.61;89.27
75775;BME280;64505;51.458;7.556;2023-08-01T02:34:19;97996.59;;;17.54;89.68
75775;BME280;64505;51.458;7.556;2023-08-01T02:36:20;97993.38;;;17.75;89.45
75775;BME280;64505;51.458;7.556;2023-08-01T02:38:22;98000.81;;;17.47;90.07
75775;BME280;64505;51.458;7.556;2023-08-01T02:40:23;97992.88;;;17.64;89.63
75775;BME280;64505;51.458;7.556;2023-08-01T02:42:25;97997.03;;;17.48;89.10
75775;BME280;64505;51.458;7.556;2023-08-01T02:44:26;98002.81;;;17.41;89.51
75775;BME280;64505;51.458;7.556;2023-08-01T02:46:28;98012.31;;;17.56;89.28
75775;BME280;64505;51.458;7.556;2023-08-01T02:48:32;97992.00;;;17.46;88.67
75775;BME280;64505;51.458;7.556;2023-08-01T02:50:33;98004.06;;;17.44;88.41
75775;BME280;64505;51.458;7.556;2023-08-01T02:52:35;97995.03;;;17.22;89.60
75775;BME280;64505;51.458;7.556;2023-08-01T02:54:36;97999.53;;;17.13;89.13
75775;BME280;64505;51.458;7.556;2023-08-01T02:56:38;97993.81;;;17.29;88.16
75775;BME280;64505;51.458;7.556;2023-08-01T02:58:43;98003.81;;;17.23;87.44
75775;BME280;64505;51.458;7.556;2023-08-01T03:00:44;97996.56;;;17.15;87.82
75775;BME280;64505;51.458;7.556;2023-08-01T03:02:46;98002.50;;;17.12;88.11
75775;BME280;64505;51.458;7.556;2023-08-01T03:04:47;98006.38;;;17.28;87.67
75775;BME280;64505;51.458;7.556;2023-08-01T03:06:49;98000.47;;;17.09;88.09
75775;BME280;64505;51.458;7.556;2023-08-01T03:08:50;98003.53;;;17.25;87.65
75775;BME280;64505;51.458;7.556;2023-08-01T03:10:54;98004.38;;;17.11;88.27
75775;BME280;64505;51.458;7.556;2023-08-01T03:12:55;97997.50;;;17.10;88.58
75775;BME280;64505;51.458;7.556;2023-08-01T03:14:57;97990.75;;;17.13;89.01
75775;BME280;64505;51.458;7.556;2023-08-01T03:16:58;97995.41;;;17.07;88.98
75775;BME280;64505;51.458;7.556;2023-08-01T03:19:00;97995.22;;;17.04;88.23
75775;BME280;64505;51.458;7.556;2023-08-01T03:21:05;97999.22;;;17.15;88.25
75775;BME280;64505;51.458;7.556;2023-08-01T03:23:07;98000.53;;;16.95;89.80
75775;BME280;64505;51.458;7.556;2023-08-01T03:25:08;97999.03;;;17.03;89.14
75775;BME280;64505;51.458;7.556;2023-08-01T03:27:10;97990.00;;;16.68;91.67
75775;BME280;64505;51.458;7.556;2023-08-01T03:29:11;97991.47;;;17.05;90.17
75775;BME280;64505;51.458;7.556;2023-08-01T03:31:13;98003.66;;;17.19;89.06
75775;BME280;64505;51.458;7.556;2023-08-01T03:33:15;98001.13;;;17.14;89.29
75775;BME280;64505;51.458;7.556;2023-08-01T03:35:16;98004.22;;;17.08;89.90
75775;BME280;64505;51.458;7.556;2023-08-01T03:37:18;98006.03;;;17.21;88.74
75775;BME280;64505;51.458;7.556;2023-08-01T03:39:19;98006.31;;;17.19;89.11
75775;BME280;64505;51.458;7.556;2023-08-01T03:41:21;98013.69;;;17.14;89.36
75775;BME280;64505;51.458;7.556;2023-08-01T03:43:23;98013.38;;;17.15;89.58
75775;BME280;64505;51.458;7.556;2023-08-01T03:45:25;98007.16;;;16.98;89.73
75775;BME280;64505;51.458;7.556;2023-08-01T03:47:26;98007.31;;;17.01;89.55
75775;BME280;64505;51.458;7.556;2023-08-01T03:49:28;98005.25;;;17.20;88.80
75775;BME280;64505;51.458;7.556;2023-08-01T03:51:29;98008.34;;;17.14;89.37
75775;BME280;64505;51.458;7.556;2023-08-01T03:53:31;98012.22;;;17.08;89.81
75775;BME280;64505;51.458;7.556;2023-08-01T03:55:33;98010.13;;;17.27;88.72
75775;BME280;64505;51.458;7.556;2023-08-01T03:57:34;98008.97;;;17.11;89.08
75775;BME280;64505;51.458;7.556;2023-08-01T03:59:36;98023.59;;;17.13;89.34
75775;BME280;64505;51.458;7.556;2023-08-01T04:01:37;98022.88;;;17.30;88.81
75775;BME280;64505;51.458;7.556;2023-08-01T04:03:38;98029.72;;;17.14;89.44
75775;BME280;64505;51.458;7.556;2023-08-01T04:05:40;98022.09;;;16.99;89.96
75775;BME280;64505;51.458;7.556;2023-08-01T04:07:42;98025.47;;;17.13;89.76
75775;BME280;64505;51.458;7.556;2023-08-01T04:09:43;98036.94;;;17.13;89.57
75775;BME280;64505;51.458;7.556;2023-08-01T04:11:45;98023.41;;;17.10;90.76
75775;BME280;64505;51.458;7.556;2023-08-01T04:13:46;98028.41;;;17.03;90.04
75775;BME280;64505;51.458;7.556;2023-08-01T04:15:48;98033.81;;;17.20;88.83
75775;BME280;64505;51.458;7.556;2023-08-01T04:17:50;98037.41;;;17.15;89.25
75775;BME280;64505;51.458;7.556;2023-08-01T04:19:51;98035.44;;;16.99;89.92
75775;BME280;64505;51.458;7.556;2023-08-01T04:21:52;98040.63;;;17.04;90.32
75775;BME280;64505;51.458;7.556;2023-08-01T04:23:54;98035.06;;;17.14;89.45
75775;BME280;64505;51.458;7.556;2023-08-01T04:25:55;98035.34;;;17.12;89.47
75775;BME280;64505;51.458;7.556;2023-08-01T04:27:57;98044.03;;;17.18;88.99
75775;BME280;64505;51.458;7.556;2023-08-01T04:29:58;98041.06;;;17.19;89.25
75775;BME280;64505;51.458;7.556;2023-08-01T04:32:00;98046.28;;;17.25;88.48
75775;BME280;64505;51.458;7.556;2023-08-01T04:34:02;98044.41;;;17.25;88.78
75775;BME280;64505;51.458;7.556;2023-08-01T04:36:03;98055.25;;;17.29;88.51
75775;BME280;64505;51.458;7.556;2023-08-01T04:38:05;98049.22;;;17.14;88.78
75775;BME280;64505;51.458;7.556;2023-08-01T04:40:07;98057.88;;;17.20;88.94
75775;BME280;64505;51.458;7.556;2023-08-01T04:42:09;98046.38;;;17.11;89.10
75775;BME280;64505;51.458;7.556;2023-08-01T04:44:10;98047.75;;;17.08;88.40
75775;BME280;64505;51.458;7.556;2023-08-01T04:46:12;98051.38;;;17.12;88.87
75775;BME280;64505;51.458;7.556;2023-08-01T04:48:15;98052.16;;;17.13;88.42
75775;BME280;64505;51.458;7.556;2023-08-01T04:50:17;98050.84;;;17.02;86.86
75775;BME280;64505;51.458;7.556;2023-08-01T04:52:18;98060.91;;;17.05;87.28
75775;BME280;64505;51.458;7.556;2023-08-01T04:54:20;98057.97;;;17.15;87.39
75775;BME280;64505;51.458;7.556;2023-08-01T04:56:21;98058.84;;;16.80;87.48
75775;BME280;64505;51.458;7.556;2023-08-01T04:58:23;98051.19;;;17.09;87.25
75775;BME280;64505;51.458;7.556;2023-08-01T05:00:24;98067.59;;;17.16;87.08
75775;BME280;64505;51.458;7.556;2023-08-01T05:02:26;98064.81;;;16.99;86.86
75775;BME280;64505;51.458;7.556;2023-08-01T05:04:27;98069.16;;;16.95;87.29
75775;BME280;64505;51.458;7.556;2023-08-01T05:06:29;98074.25;;;17.05;87.26
75775;BME280;64505;51.458;7.556;2023-08-01T05:08:30;98071.06;;;16.94;86.78
75775;BME280;64505;51.458;7.556;2023-08-01T05:10:32;98072.69;;;17.04;86.75
75775;BME280;64505;51.458;7.556;2023-08-01T05:12:33;98066.13;;;17.10;86.63
75775;BME280;64505;51.458;7.556;2023-08-01T05:14:34;98074.94;;;17.10;87.27
75775;BME280;64505;51.458;7.556;2023-08-01T05:16:36;98073.84;;;17.11;86.64
75775;BME280;64505;51.458;7.556;2023-08-01T05:18:38;98070.16;;;16.99;86.66
75775;BME280;64505;51.458;7.556;2023-08-01T05:20:39;98080.66;;;17.17;86.87
75775;BME280;64505;51.458;7.556;2023-08-01T05:22:40;98088.59;;;17.09;86.24
75775;BME280;64505;51.458;7.556;2023-08-01T05:24:42;98093.22;;;17.17;87.44
75775;BME280;64505;51.458;7.556;2023-08-01T05:26:43;98090.19;;;17.10;86.89
75775;BME280;64505;51.458;7.556;2023-08-01T05:28:45;98089.09;;;17.11;87.13
75775;BME280;64505;51.458;7.556;2023-08-01T05:30:47;98090.91;;;17.02;86.51
75775;BME280;64505;51.458;7.556;2023-08-01T05:32:48;98096.91;;;17.07;86.30
75775;BME280;64505;51.458;7.556;2023-08-01T05:34:50;98092.22;;;17.13;86.33
75775;BME280;64505;51.458;7.556;2023-08-01T05:36:51;98104.53;;;17.00;86.27
75775;BME280;64505;51.458;7.556;2023-08-01T05:38:53;98092.72;;;17.15;86.46
75775;BME280;64505;51.458;7.556;2023-08-01T05:40:54;98098.44;;;17.00;86.14
75775;BME280;64505;51.458;7.556;2023-08-01T05:42:55;98098.72;;;16.98;86.82
75775;BME280;64505;51.458;7.556;2023-08-01T05:44:57;98098.13;;;17.01;87.39
75775;BME280;64505;51.458;7.556;2023-08-01T05:46:59;98096.00;;;17.12;86.67
75775;BME280;64505;51.458;7.556;2023-08-01T05:49:00;98100.59;;;17.20;86.50
75775;BME280;64505;51.458;7.556;2023-08-01T05:51:02;98100.25;;;17.13;87.26
75775;BME280;64505;51.458;7.556;2023-08-01T05:53:03;98100.91;;;17.18;86.21
75775;BME280;64505;51.458;7.556;2023-08-01T05:55:06;98113.00;;;17.16;86.51
75775;BME280;64505;51.458;7.556;2023-08-01T05:57:07;98099.16;;;17.14;86.76
75775;BME280;64505;51.458;7.556;2023-08-01T05:59:09;98109.78;;;17.05;87.56
75775;BME280;64505;51.458;7.556;2023-08-01T06:01:11;98107.00;;;17.10;87.43
75775;BME280;64505;51.458;7.556;2023-08-01T06:03:13;98111.41;;;16.93;88.06
75775;BME280;64505;51.458;7.556;2023-08-01T06:05:15;98107.28;;;17.09;87.33
75775;BME280;64505;51.458;7.556;2023-08-01T06:07:17;98109.88;;;17.22;86.57
75775;BME280;64505;51.458;7.556;2023-08-01T06:09:24;98112.38;;;17.19;86.84
75775;BME280;64505;51.458;7.556;2023-08-01T06:11:25;98116.19;;;17.04;87.29
75775;BME280;64505;51.458;7.556;2023-08-01T06:13:28;98110.50;;;16.97;87.82
75775;BME280;64505;51.458;7.556;2023-08-01T06:15:29;98116.38;;;17.30;86.76
75775;BME280;64505;51.458;7.556;2023-08-01T06:17:31;98110.69;;;17.23;86.24
75775;BME280;64505;51.458;7.556;2023-08-01T06:19:32;98113.72;;;17.30;86.08
75775;BME280;64505;51.458;7.556;2023-08-01T06:21:34;98110.50;;;17.19;86.68
75775;BME280;64505;51.458;7.556;2023-08-01T06:23:35;98117.47;;;17.29;86.49
75775;BME280;64505;51.458;7.556;2023-08-01T06:25:37;98120.72;;;17.40;85.92
75775;BME280;64505;51.458;7.556;2023-08-01T06:27:39;98114.13;;;17.46;85.48
75775;BME280;64505;51.458;7.556;2023-08-01T06:29:40;98117.63;;;17.55;84.75
75775;BME280;64505;51.458;7.556;2023-08-01T06:31:41;98110.38;;;17.47;84.88
75775;BME280;64505;51.458;7.556;2023-08-01T06:33:43;98129.47;;;17.40;85.21
75775;BME280;64505;51.458;7.556;2023-08-01T06:35:44;98117.72;;;17.41;86.26
75775;BME280;64505;51.458;7.556;2023-08-01T06:37:46;98121.53;;;17.49;85.45
75775;BME280;64505;51.458;7.556;2023-08-01T06:39:47;98131.94;;;17.50;85.32
75775;BME280;64505;51.458;7.556;2023-08-01T06:41:49;98128.06;;;17.56;85.71
75775;BME280;64505;51.458;7.556;2023-08-01T06:43:50;98126.19;;;17.57;84.59
75775;BME280;64505;51.458;7.556;2023-08-01T06:45:52;98125.13;;;17.66;84.88
75775;BME280;64505;51.458;7.556;2023-08-01T06:47:53;98137.75;;;17.75;84.54
75775;BME280;64505;51.458;7.556;2023-08-01T06:49:55;98134.72;;;17.45;85.34
75775;BME280;64505;51.458;7.556;2023-08-01T06:51:57;98131.13;;;17.50;85.34
75775;BME280;64505;51.458;7.556;2023-08-01T06:53:58;98132.47;;;17.39;86.36
75775;BME280;64505;51.458;7.556;2023-08-01T06:55:59;98127.31;;;17.64;85.11
75775;BME280;64505;51.458;7.556;2023-08-01T06:58:01;98130.50;;;17.75;85.92
75775;BME280;64505;51.458;7.556;2023-08-01T07:00:03;98129.31;;;17.90;83.66
75775;BME280;64505;51.458;7.556;2023-08-01T07:02:05;98137.25;;;18.03;83.83
75775;BME280;64505;51.458;7.556;2023-08-01T07:04:07;98128.56;;;17.98;82.18
75775;BME280;64505;51.458;7.556;2023-08-01T07:06:08;98136.16;;;18.04;82.76
75775;BME280;64505;51.458;7.556;2023-08-01T07:08:11;98130.81;;;18.13;82.80
75775;BME280;64505;51.458;7.556;2023-08-01T07:10:13;98122.19;;;18.25;82.24
75775;BME280;64505;51.458;7.556;2023-08-01T07:12:14;98137.19;;;18.43;81.77
75775;BME280;64505;51.458;7.556;2023-08-01T07:14:16;98136.50;;;18.77;81.42
75775;BME280;64505;51.458;7.556;2023-08-01T07:16:17;98133.16;;;18.54;80.22
75775;BME280;64505;51.458;7.556;2023-08-01T07:18:19;98134.25;;;18.53;81.64
75775;BME280;64505;51.458;7.556;2023-08-01T07:20:20;98140.53;;;18.48;81.68
75775;BME280;64505;51.458;7.556;2023-08-01T07:22:21;98140.22;;;18.50;81.19
75775;BME280;64505;51.458;7.556;2023-08-01T07:24:24;98140.09;;;18.55;81.33
75775;BME280;64505;51.458;7.556;2023-08-01T07:26:29;98145.69;;;18.36;81.25
75775;BME280;64505;51.458;7.556;2023-08-01T07:28:31;98148.81;;;18.30;81.65
75775;BME280;64505;51.458;7.556;2023-08-01T07:30:32;98142.72;;;18.46;80.83
75775;BME280;64505;51.458;7.556;2023-08-01T07:32:34;98144.97;;;18.53;79.72
75775;BME280;64505;51.458;7.556;2023-08-01T07:34:35;98142.31;;;18.61;79.98
75775;BME280;64505;51.458;7.556;2023-08-01T07:36:37;98146.59;;;18.80;80.11
75775;BME280;64505;51.458;7.556;2023-08-01T07:38:39;98141.69;;;18.82;79.35
75775;BME280;64505;51.458;7.556;2023-08-01T07:40:40;98152.22;;;18.61;81.16
75775;BME280;64505;51.458;7.556;2023-08-01T07:42:42;98151.94;;;18.88;80.47
75775;BME280;64505;51.458;7.556;2023-08-01T07:44:43;98157.94;;;19.02;79.65
75775;BME280;64505;51.458;7.556;2023-08-01T07:46:44;98156.34;;;19.18;79.28
75775;BME280;64505;51.458;7.556;2023-08-01T07:48:46;98162.19;;;18.95;78.94
75775;BME280;64505;51.458;7.556;2023-08-01T07:50:48;98166.28;;;19.01;78.90
75775;BME280;64505;51.458;7.556;2023-08-01T07:52:49;98163.28;;;18.77;80.48
75775;BME280;64505;51.458;7.556;2023-08-01T07:54:51;98158.84;;;18.55;79.06
75775;BME280;64505;51.458;7.556;2023-08-01T07:56:54;98164.38;;;19.10;78.11
75775;BME280;64505;51.458;7.556;2023-08-01T07:58:56;98162.19;;;19.29;77.83
75775;BME280;64505;51.458;7.556;2023-08-01T08:01:02;98159.34;;;19.26;78.42
75775;BME280;64505;51.458;7.556;2023-08-01T08:03:04;98164.09;;;18.77;78.78
75775;BME280;64505;51.458;7.556;2023-08-01T08:05:07;98163.59;;;18.92;77.39
75775;BME280;64505;51.458;7.556;2023-08-01T08:07:08;98169.44;;;19.03;78.59
75775;BME280;64505;51.458;7.556;2023-08-01T08:09:10;98169.59;;;19.24;78.09
75775;BME280;64505;51.458;7.556;2023-08-01T08:11:11;98174.34;;;19.09;77.90
75775;BME280;64505;51.458;7.556;2023-08-01T08:13:13;98186.31;;;19.29;76.99
75775;BME280;64505;51.458;7.556;2023-08-01T08:15:14;98179.69;;;19.27;77.72
75775;BME280;64505;51.458;7.556;2023-08-01T08:17:17;98175.75;;;19.50;76.79
75775;BME280;64505;51.458;7.556;2023-08-01T08:19:18;98186.56;;;19.79;76.89
75775;BME280;64505;51.458;7.556;2023-08-01T08:21:20;98187.59;;;19.49;76.14
75775;BME280;64505;51.458;7.556;2023-08-01T08:23:21;98178.91;;;19.35;76.66
75775;BME280;64505;51.458;7.556;2023-08-01T08:25:23;98174.00;;;19.54;77.20
75775;BME280;64505;51.458;7.556;2023-08-01T08:27:24;98179.84;;;19.30;76.71
75775;BME280;64505;51.458;7.556;2023-08-01T08:29:26;98178.69;;;19.83;75.48
75775;BME280;64505;51.458;7.556;2023-08-01T08:31:27;98178.22;;;19.72;74.71
75775;BME280;64505;51.458;7.556;2023-08-01T08:33:29;98176.22;;;19.35;75.04
75775;BME280;64505;51.458;7.556;2023-08-01T08:35:31;98173.41;;;19.48;76.04
75775;BME280;64505;51.458;7.556;2023-08-01T08:37:32;98186.47;;;19.50;74.51
75775;BME280;64505;51.458;7.556;2023-08-01T08:39:34;98180.31;;;19.58;74.57
75775;BME280;64505;51.458;7.556;2023-08-01T08:41:38;98175.09;;;19.70;75.03
75775;BME280;64505;51.458;7.556;2023-08-01T08:43:45;98182.09;;;20.00;75.50
75775;BME280;64505;51.458;7.556;2023-08-01T08:45:48;98190.63;;;20.02;75.94
75775;BME280;64505;51.458;7.556;2023-08-01T08:47:55;98178.00;;;20.41;73.57
75775;BME280;64505;51.458;7.556;2023-08-01T08:49:57;98186.28;;;20.19;73.58
75775;BME280;64505;51.458;7.556;2023-08-01T08:51:59;98185.38;;;20.14;71.29
75775;BME280;64505;51.458;7.556;2023-08-01T08:54:01;98186.69;;;20.00;72.88
75775;BME280;64505;51.458;7.556;2023-08-01T08:56:03;98186.41;;;19.84;74.80
75775;BME280;64505;51.458;7.556;2023-08-01T08:58:05;98175.94;;;20.46;73.23
75775;BME280;64505;51.458;7.556;2023-08-01T09:00:07;98180.75;;;20.24;71.75
75775;BME280;64505;51.458;7.556;2023-08-01T09:02:09;98177.78;;;20.17;72.44
75775;BME280;64505;51.458;7.556;2023-08-01T09:04:10;98184.22;;;20.33;71.45
75775;BME280;64505;51.458;7.556;2023-08-01T09:06:15;98178.22;;;20.36;71.06
75775;BME280;64505;51.458;7.556;2023-08-01T09:08:21;98175.75;;;20.51;71.34
75775;BME280;64505;51.458;7.556;2023-08-01T09:10:25;98180.81;;;20.53;69.75
75775;BME280;64505;51.458;7.556;2023-08-01T09:12:27;98173.19;;;21.05;69.02
75775;BME280;64505;51.458;7.556;2023-08-01T09:14:28;98181.00;;;20.98;71.10
75775;BME280;64505;51.458;7.556;2023-08-01T09:16:32;98185.91;;;21.17;69.32
75775;BME280;64505;51.458;7.556;2023-08-01T09:18:33;98180.44;;;20.84;69.63
75775;BME280;64505;51.458;7.556;2023-08-01T09:20:45;98192.19;;;20.79;69.35
75775;BME280;64505;51.458;7.556;2023-08-01T09:22:47;98183.19;;;21.25;68.03
75775;BME280;64505;51.458;7.556;2023-08-01T09:24:52;98187.13;;;21.60;67.83
75775;BME280;64505;51.458;7.556;2023-08-01T09:27:02;98182.16;;;20.88;67.55
75775;BME280;64505;51.458;7.556;2023-08-01T09:29:07;98192.19;;;20.50;68.63
75775;BME280;64505;51.458;7.556;2023-08-01T09:31:10;98190.97;;;20.39;70.54
75775;BME280;64505;51.458;7.556;2023-08-01T09:33:12;98202.16;;;20.41;70.85
75775;BME280;64505;51.458;7.556;2023-08-01T09:35:13;98201.69;;;20.47;71.13
75775;BME280;64505;51.458;7.556;2023-08-01T09:37:15;98190.34;;;20.42;71.42
75775;BME280;64505;51.458;7.556;2023-08-01T09:39:20;98194.47;;;20.69;71.27
75775;BME280;64505;51.458;7.556;2023-08-01T09:41:22;98189.38;;;20.76;72.38
75775;BME280;64505;51.458;7.556;2023-08-01T09:43:23;98193.69;;;20.89;72.72
75775;BME280;64505;51.458;7.556;2023-08-01T09:45:25;98201.75;;;20.89;71.24
75775;BME280;64505;51.458;7.556;2023-08-01T09:47:36;98198.91;;;20.65;71.08
75775;BME280;64505;51.458;7.556;2023-08-01T09:49:47;98185.19;;;20.87;70.47
75775;BME280;64505;51.458;7.556;2023-08-01T09:51:50;98189.09;;;20.89;70.81
75775;BME280;64505;51.458;7.556;2023-08-01T09:53:56;98194.78;;;20.88;70.92
75775;BME280;64505;51.458;7.556;2023-08-01T09:56:00;98176.25;;;20.95;70.11
75775;BME280;64505;51.458;7.556;2023-08-01T09:58:04;98185.41;;;21.23;69.12
75775;BME280;64505;51.458;7.556;2023-08-01T10:00:08;98188.03;;;21.11;69.90
75775;BME280;64505;51.458;7.556;2023-08-01T10:02:15;98187.84;;;21.16;68.75
75775;BME280;64505;51.458;7.556;2023-08-01T10:04:24;98178.56;;;21.46;66.04
75775;BME280;64505;51.458;7.556;2023-08-01T10:06:29;98185.78;;;21.99;66.16
75775;BME280;64505;51.458;7.556;2023-08-01T10:08:33;98188.72;;;22.19;68.94
75775;BME280;64505;51.458;7.556;2023-08-01T10:10:35;98188.06;;;22.22;66.28
75775;BME280;64505;51.458;7.556;2023-08-01T10:12:37;98185.66;;;21.96;65.02
75775;BME280;64505;51.458;7.556;2023-08-01T10:14:39;98186.81;;;22.07;65.47
75775;BME280;64505;51.458;7.556;2023-08-01T10:16:42;98183.59;;;22.14;64.53
75775;BME280;64505;51.458;7.556;2023-08-01T10:18:44;98183.34;;;22.19;63.59
75775;BME280;64505;51.458;7.556;2023-08-01T10:20:46;98181.00;;;22.29;63.95
75775;BME280;64505;51.458;7.556;2023-08-01T10:22:49;98178.75;;;22.43;63.74
75775;BME280;64505;51.458;7.556;2023-08-01T10:24:52;98165.84;;;22.49;64.65
75775;BME280;64505;51.458;7.556;2023-08-01T10:26:54;98175.94;;;22.40;63.50
75775;BME280;64505;51.458;7.556;2023-08-01T10:28:56;98180.31;;;22.32;62.64
75775;BME280;64505;51.458;7.556;2023-08-01T10:31:14;98182.13;;;22.52;62.69
75775;BME280;64505;51.458;7.556;2023-08-01T10:33:15;98190.53;;;22.63;61.20
75775;BME280;64505;51.458;7.556;2023-08-01T10:35:17;98177.41;;;22.25;59.22
75775;BME280;64505;51.458;7.556;2023-08-01T10:37:18;98187.47;;;22.04;62.89
75775;BME280;64505;51.458;7.556;2023-08-01T10:39:22;98177.69;;;21.54;64.24
75775;BME280;64505;51.458;7.556;2023-08-01T10:41:28;98198.44;;;21.13;66.02
75775;BME280;64505;51.458;7.556;2023-08-01T10:43:30;98205.13;;;20.77;67.36
75775;BME280;64505;51.458;7.556;2023-08-01T10:45:31;98208.75;;;20.52;67.63
75775;BME280;64505;51.458;7.556;2023-08-01T10:47:33;98213.34;;;20.51;68.90